createdAt,value
2018-11-25T00:00:36.964Z,97841.86
2018-11-25T00:03:07.549Z,97836.63
2018-11-25T00:05:38.343Z,97834.48
2018-11-25T00:08:08.788Z,97827.95
2018-11-25T00:10:39.218Z,97828.34
2018-11-25T00:13:09.767Z,97826.59
2018-11-25T00:15:40.344Z,97821.79
2018-11-25T00:18:10.870Z,97823.03
2018-11-25T00:20:41.486Z,97816.53
2018-11-25T00:23:12.187Z,97816.88
2018-11-25T00:25:42.768Z,97820.25
2018-11-25T00:28:13.220Z,97818.85
2018-11-25T00:30:43.856Z,97818.77
2018-11-25T00:33:14.363Z,97815.25
2018-11-25T00:35:44.880Z,97816.48
2018-11-25T00:38:15.339Z,97807.84
2018-11-25T00:40:46.003Z,97807.81
2018-11-25T00:43:16.599Z,97803.00
2018-11-25T00:45:47.051Z,97803.85
2018-11-25T00:48:17.630Z,97801.69
2018-11-25T00:50:48.184Z,97802.92
2018-11-25T00:53:18.775Z,97800.25
2018-11-25T00:55:49.234Z,97805.37
2018-11-25T00:58:19.643Z,97805.37
2018-11-25T01:00:50.069Z,97809.25
2018-11-25T01:03:20.747Z,97807.95
2018-11-25T01:05:51.274Z,97807.52
2018-11-25T01:08:21.809Z,97802.80
2018-11-25T01:10:52.194Z,97796.79
2018-11-25T01:13:22.920Z,97799.40
2018-11-25T01:15:53.491Z,97800.25
2018-11-25T01:18:24.158Z,97799.45
2018-11-25T01:20:54.749Z,97801.22
2018-11-25T01:23:25.253Z,97794.80
2018-11-25T01:25:55.852Z,97787.09
2018-11-25T01:28:26.609Z,97792.39
2018-11-25T01:30:57.304Z,97795.00
2018-11-25T01:33:27.805Z,97788.58
2018-11-25T01:35:58.292Z,97786.09
2018-11-25T01:38:28.733Z,97785.77
2018-11-25T01:40:59.311Z,97782.56
2018-11-25T01:43:30.137Z,97786.11
2018-11-25T01:46:00.801Z,97787.95
2018-11-25T01:48:31.495Z,97778.56
2018-11-25T01:51:02.010Z,97779.09
2018-11-25T01:53:32.418Z,97780.52
2018-11-25T01:56:03.073Z,97782.02
2018-11-25T01:58:33.584Z,97783.80
2018-11-25T02:01:04.137Z,97785.22
2018-11-25T02:03:34.858Z,97782.36
2018-11-25T02:06:05.457Z,97777.64
2018-11-25T02:08:35.997Z,97775.55
2018-11-25T02:11:06.741Z,97764.89
2018-11-25T02:13:37.227Z,97762.63
2018-11-25T02:16:07.809Z,97763.58
2018-11-25T02:18:38.325Z,97756.03
2018-11-25T02:21:08.673Z,97756.48
2018-11-25T02:23:39.114Z,97755.48
2018-11-25T02:26:09.850Z,97754.63
2018-11-25T02:28:40.457Z,97756.20
2018-11-25T02:31:10.875Z,97752.75
2018-11-25T02:33:41.501Z,97747.58
2018-11-25T02:36:12.003Z,97742.81
2018-11-25T02:38:42.681Z,97746.23
2018-11-25T02:41:13.312Z,97748.31
2018-11-25T02:43:43.907Z,97737.59
2018-11-25T02:46:14.335Z,97739.80
2018-11-25T02:48:45.077Z,97741.55
2018-11-25T02:51:15.607Z,97730.39
2018-11-25T02:53:46.137Z,97734.28
2018-11-25T02:56:16.613Z,97737.68
2018-11-25T02:58:47.233Z,97727.84
2018-11-25T03:01:17.739Z,97733.05
2018-11-25T03:03:48.257Z,97732.61
2018-11-25T03:06:18.818Z,97732.14
2018-11-25T03:08:49.056Z,97732.23
2018-11-25T03:11:19.561Z,97729.70
2018-11-25T03:13:50.001Z,97728.41
2018-11-25T03:16:26.982Z,97723.80
2018-11-25T03:18:57.373Z,97720.92
2018-11-25T03:21:28.032Z,97723.14
2018-11-25T03:23:58.607Z,97719.77
2018-11-25T03:26:29.111Z,97718.55
2018-11-25T03:28:59.619Z,97718.08
2018-11-25T03:31:30.137Z,97716.88
2018-11-25T03:34:00.632Z,97717.44
2018-11-25T03:36:31.150Z,97719.96
2018-11-25T03:39:01.627Z,97716.16
2018-11-25T03:41:32.380Z,97710.64
2018-11-25T03:44:02.846Z,97716.23
2018-11-25T03:46:33.353Z,97714.05
2018-11-25T03:49:04.184Z,97713.58
2018-11-25T03:51:34.851Z,97711.03
2018-11-25T03:54:05.772Z,97713.66
2018-11-25T03:56:36.561Z,97708.58
2018-11-25T03:59:07.239Z,97707.30
2018-11-25T04:01:37.883Z,97706.80
2018-11-25T04:04:08.535Z,97701.32
2018-11-25T04:06:39.167Z,97702.22
2018-11-25T04:09:10.045Z,97698.44
2018-11-25T04:11:43.861Z,97696.73
2018-11-25T04:14:14.373Z,97700.10
2018-11-25T04:16:44.986Z,97694.52
2018-11-25T04:19:16.556Z,97692.51
2018-11-25T04:21:47.046Z,97688.75
2018-11-25T04:24:17.882Z,97691.24
2018-11-25T04:26:48.467Z,97689.03
2018-11-25T04:29:18.940Z,97691.66
2018-11-25T04:31:49.554Z,97692.05
2018-11-25T04:34:20.085Z,97687.23
2018-11-25T04:36:50.574Z,97689.02
2018-11-25T04:39:20.951Z,97691.63
2018-11-25T04:41:51.565Z,97694.58
2018-11-25T04:44:23.276Z,97689.86
2018-11-25T04:46:52.842Z,97686.02
2018-11-25T04:49:31.729Z,97686.88
2018-11-25T04:52:02.186Z,97677.94
2018-11-25T04:54:32.767Z,97686.07
2018-11-25T04:57:03.428Z,97684.73
2018-11-25T04:59:33.977Z,97686.85
2018-11-25T05:02:04.544Z,97683.11
2018-11-25T05:04:35.104Z,97677.58
2018-11-25T05:07:05.936Z,97676.67
2018-11-25T05:09:39.588Z,97681.77
2018-11-25T05:12:10.058Z,97676.60
2018-11-25T05:14:40.528Z,97678.28
2018-11-25T05:17:11.049Z,97677.89
2018-11-25T05:19:49.536Z,97671.06
2018-11-25T05:22:20.536Z,97668.93
2018-11-25T05:24:51.234Z,97665.56
2018-11-25T05:27:21.858Z,97668.57
2018-11-25T05:29:52.479Z,97670.73
2018-11-25T05:32:22.776Z,97666.05
2018-11-25T05:34:53.324Z,97670.73
2018-11-25T05:37:23.760Z,97670.76
2018-11-25T05:39:54.245Z,97668.20
2018-11-25T05:42:24.692Z,97670.66
2018-11-25T05:44:55.172Z,97669.31
2018-11-25T05:47:25.902Z,97672.70
2018-11-25T05:49:56.276Z,97673.16
2018-11-25T05:52:26.884Z,97678.43
2018-11-25T05:54:57.313Z,97670.45
2018-11-25T05:57:27.801Z,97670.09
2018-11-25T05:59:58.187Z,97671.05
2018-11-25T06:02:28.717Z,97662.11
2018-11-25T06:04:59.163Z,97672.41
2018-11-25T06:07:29.706Z,97675.80
2018-11-25T06:10:00.186Z,97680.56
2018-11-25T06:12:31.016Z,97678.50
2018-11-25T06:15:01.601Z,97674.27
2018-11-25T06:17:32.173Z,97679.84
2018-11-25T06:20:02.751Z,97679.83
2018-11-25T06:22:33.293Z,97673.83
2018-11-25T06:25:03.978Z,97679.33
2018-11-25T06:27:38.266Z,97681.38
2018-11-25T06:30:06.187Z,97677.21
2018-11-25T06:32:36.602Z,97676.41
2018-11-25T06:35:08.418Z,97682.40
2018-11-25T06:37:38.973Z,97676.91
2018-11-25T06:40:12.052Z,97681.27
2018-11-25T06:42:42.989Z,97680.48
2018-11-25T06:45:15.771Z,97681.77
2018-11-25T06:47:46.519Z,97681.34
2018-11-25T06:50:17.134Z,97681.78
2018-11-25T06:52:47.713Z,97684.83
2018-11-25T06:55:18.426Z,97689.20
2018-11-25T06:57:48.982Z,97691.77
2018-11-25T07:00:21.505Z,97688.19
2018-11-25T07:02:52.291Z,97689.94
2018-11-25T07:05:22.781Z,97695.19
2018-11-25T07:07:53.287Z,97703.34
2018-11-25T07:10:24.307Z,97694.76
2018-11-25T07:12:55.555Z,97699.98
2018-11-25T07:15:26.185Z,97694.03
2018-11-25T07:17:56.876Z,97695.78
2018-11-25T07:20:27.370Z,97692.39
2018-11-25T07:23:00.685Z,97698.34
2018-11-25T07:25:31.458Z,97700.41
2018-11-25T07:28:17.609Z,97701.75
2018-11-25T07:30:34.223Z,97705.52
2018-11-25T07:33:04.807Z,97707.61
2018-11-25T07:35:35.310Z,97703.75
2018-11-25T07:38:06.630Z,97703.23
2018-11-25T07:40:37.160Z,97710.56
2018-11-25T07:43:07.961Z,97704.12
2018-11-25T07:45:38.458Z,97703.25
2018-11-25T07:48:09.476Z,97697.65
2018-11-25T07:50:40.117Z,97697.77
2018-11-25T07:53:10.573Z,97696.41
2018-11-25T07:55:41.710Z,97699.80
2018-11-25T07:58:12.430Z,97698.86
2018-11-25T08:00:43.376Z,97700.50
2018-11-25T08:03:14.254Z,97700.84
2018-11-25T08:05:45.257Z,97695.63
2018-11-25T08:08:15.981Z,97689.91
2018-11-25T08:10:46.641Z,97688.06
2018-11-25T08:13:17.388Z,97684.69
2018-11-25T08:15:48.105Z,97685.53
2018-11-25T08:18:18.978Z,97688.36
2018-11-25T08:20:49.530Z,97685.59
2018-11-25T08:23:19.947Z,97680.27
2018-11-25T08:25:50.486Z,97675.98
2018-11-25T08:28:21.281Z,97672.05
2018-11-25T08:30:51.938Z,97676.41
2018-11-25T08:33:22.779Z,97667.31
2018-11-25T08:35:53.460Z,97658.27
2018-11-25T08:38:24.172Z,97658.77
2018-11-25T08:40:54.906Z,97656.52
2018-11-25T08:43:27.961Z,97650.75
2018-11-25T08:45:58.523Z,97652.83
2018-11-25T08:48:29.421Z,97654.86
2018-11-25T08:51:00.053Z,97649.16
2018-11-25T08:53:30.830Z,97651.21
2018-11-25T08:56:01.357Z,97650.23
2018-11-25T08:58:32.584Z,97645.40
2018-11-25T09:01:03.771Z,97640.02
2018-11-25T09:03:35.295Z,97638.64
2018-11-25T09:06:05.661Z,97631.23
2018-11-25T09:08:36.851Z,97630.97
2018-11-25T09:11:07.694Z,97630.29
2018-11-25T09:13:38.444Z,97629.58
2018-11-25T09:16:09.657Z,97622.09
2018-11-25T09:18:40.216Z,97627.04
2018-11-25T09:21:10.952Z,97620.95
2018-11-25T09:23:41.691Z,97625.80
2018-11-25T09:26:12.406Z,97625.06
2018-11-25T09:28:43.194Z,97617.73
2018-11-25T09:31:13.770Z,97614.96
2018-11-25T09:33:44.404Z,97611.94
2018-11-25T09:36:14.901Z,97606.38
2018-11-25T09:38:45.558Z,97608.95
2018-11-25T09:41:16.146Z,97600.80
2018-11-25T09:43:46.914Z,97601.69
2018-11-25T09:46:17.662Z,97595.23
2018-11-25T09:48:54.502Z,97592.94
2018-11-25T09:51:24.907Z,97590.18
2018-11-25T09:53:55.417Z,97578.23
2018-11-25T09:56:27.157Z,97574.45
2018-11-25T09:58:57.742Z,97569.40
2018-11-25T10:01:28.718Z,97567.34
2018-11-25T10:03:59.317Z,97567.31
2018-11-25T10:06:29.904Z,97565.33
2018-11-25T10:09:00.528Z,97568.72
2018-11-25T10:11:31.067Z,97560.33
2018-11-25T10:14:02.026Z,97552.91
2018-11-25T10:16:32.772Z,97543.27
2018-11-25T10:19:03.502Z,97534.83
2018-11-25T10:21:34.621Z,97534.80
2018-11-25T10:24:05.325Z,97532.41
2018-11-25T10:26:36.226Z,97537.50
2018-11-25T10:29:06.924Z,97524.22
2018-11-25T10:31:37.544Z,97527.73
2018-11-25T10:34:08.514Z,97524.18
2018-11-25T10:36:42.204Z,97515.70
2018-11-25T10:39:12.866Z,97502.05
2018-11-25T10:41:43.543Z,97499.22
2018-11-25T10:44:14.263Z,97499.70
2018-11-25T10:46:45.124Z,97496.13
2018-11-25T10:49:15.857Z,97491.38
2018-11-25T10:51:46.376Z,97492.37
2018-11-25T10:54:17.320Z,97495.81
2018-11-25T10:56:47.847Z,97485.12
2018-11-25T10:59:18.551Z,97475.54
2018-11-25T11:01:55.873Z,97473.45
2018-11-25T11:04:31.686Z,97473.66
2018-11-25T11:07:07.475Z,97474.78
2018-11-25T11:09:38.127Z,97477.28
2018-11-25T11:12:08.603Z,97465.99
2018-11-25T11:14:39.324Z,97462.82
2018-11-25T11:17:09.991Z,97462.10
2018-11-25T11:19:40.579Z,97451.69
2018-11-25T11:22:11.189Z,97452.26
2018-11-25T11:24:41.775Z,97450.47
2018-11-25T11:27:12.277Z,97452.09
2018-11-25T11:29:43.020Z,97446.53
2018-11-25T11:32:13.590Z,97442.20
2018-11-25T11:34:44.369Z,97436.81
2018-11-25T11:37:15.154Z,97433.73
2018-11-25T11:39:46.137Z,97436.17
2018-11-25T11:42:16.945Z,97438.10
2018-11-25T11:44:48.541Z,97435.02
2018-11-25T11:47:19.485Z,97436.06
2018-11-25T11:49:50.323Z,97430.45
2018-11-25T11:52:21.090Z,97432.74
2018-11-25T11:54:51.918Z,97432.94
2018-11-25T11:57:22.889Z,97424.48
2018-11-25T11:59:53.485Z,97423.16
2018-11-25T12:02:27.604Z,97419.80
2018-11-25T12:05:03.001Z,97418.17
2018-11-25T12:07:33.927Z,97413.72
2018-11-25T12:10:04.601Z,97414.50
2018-11-25T12:12:35.102Z,97411.23
2018-11-25T12:15:10.171Z,97402.61
2018-11-25T12:17:40.850Z,97407.66
2018-11-25T12:20:11.794Z,97408.87
2018-11-25T12:22:43.515Z,97408.83
2018-11-25T12:25:15.331Z,97405.14
2018-11-25T12:27:45.956Z,97404.52
2018-11-25T12:30:17.009Z,97400.09
2018-11-25T12:32:48.613Z,97404.96
2018-11-25T12:35:19.346Z,97405.22
2018-11-25T12:37:49.903Z,97406.20
2018-11-25T12:40:21.642Z,97398.52
2018-11-25T12:42:54.109Z,97398.62
2018-11-25T12:45:24.790Z,97403.08
2018-11-25T12:47:55.142Z,97395.00
2018-11-25T12:50:26.517Z,97397.41
2018-11-25T12:52:57.187Z,97396.06
2018-11-25T12:55:28.126Z,97392.98
2018-11-25T12:57:58.929Z,97385.52
2018-11-25T13:00:39.395Z,97387.16
2018-11-25T13:03:12.362Z,97385.91
2018-11-25T13:05:46.297Z,97379.89
2018-11-25T13:08:15.084Z,97371.02
2018-11-25T13:10:46.118Z,97370.54
2018-11-25T13:13:17.236Z,97367.20
2018-11-25T13:15:47.994Z,97367.14
2018-11-25T13:18:18.611Z,97361.36
2018-11-25T13:20:49.712Z,97359.56
2018-11-25T13:23:20.258Z,97359.08
2018-11-25T13:25:51.001Z,97352.06
2018-11-25T13:28:21.918Z,97352.35
2018-11-25T13:30:52.718Z,97352.94
2018-11-25T13:33:23.654Z,97353.77
2018-11-25T13:35:54.893Z,97345.34
2018-11-25T13:38:25.664Z,97352.31
2018-11-25T13:40:56.510Z,97347.33
2018-11-25T13:43:27.031Z,97343.71
2018-11-25T13:45:57.402Z,97344.05
2018-11-25T13:48:28.380Z,97346.58
2018-11-25T13:51:06.000Z,97341.52
2018-11-25T13:53:37.012Z,97342.11
2018-11-25T13:56:08.258Z,97336.59
2018-11-25T13:58:39.236Z,97341.07
2018-11-25T14:01:09.998Z,97339.64
2018-11-25T14:03:42.224Z,97342.75
2018-11-25T14:06:14.283Z,97337.09
2018-11-25T14:08:47.090Z,97336.72
2018-11-25T14:11:17.624Z,97343.19
2018-11-25T14:13:48.131Z,97348.09
2018-11-25T14:16:21.476Z,97341.52
2018-11-25T14:18:51.991Z,97341.01
2018-11-25T14:21:22.734Z,97341.64
2018-11-25T14:23:53.442Z,97343.88
2018-11-25T14:26:26.129Z,97332.86
2018-11-25T14:28:56.497Z,97331.23
2018-11-25T14:31:26.910Z,97328.60
2018-11-25T14:33:57.470Z,97328.76
2018-11-25T14:36:27.951Z,97326.97
2018-11-25T14:38:58.528Z,97328.26
2018-11-25T14:41:29.037Z,97328.26
2018-11-25T14:43:59.573Z,97328.02
2018-11-25T14:46:30.064Z,97328.59
2018-11-25T14:49:00.653Z,97326.91
2018-11-25T14:51:31.158Z,97327.32
2018-11-25T14:54:03.342Z,97332.59
2018-11-25T14:56:33.926Z,97330.00
2018-11-25T14:59:04.316Z,97325.77
2018-11-25T15:01:34.719Z,97319.09
2018-11-25T15:04:05.766Z,97321.15
2018-11-25T15:06:36.220Z,97318.73
2018-11-25T15:09:09.845Z,97308.09
2018-11-25T15:11:40.664Z,97307.61
2018-11-25T15:14:11.226Z,97303.87
2018-11-25T15:16:41.777Z,97309.04
2018-11-25T15:19:12.732Z,97304.34
2018-11-25T15:21:43.470Z,97309.61
2018-11-25T15:24:14.009Z,97305.34
2018-11-25T15:26:44.627Z,97302.53
2018-11-25T15:29:15.121Z,97298.39
2018-11-25T15:31:45.525Z,97295.09
2018-11-25T15:34:15.961Z,97290.77
2018-11-25T15:36:46.555Z,97286.89
2018-11-25T15:39:16.932Z,97282.97
2018-11-25T15:41:47.529Z,97275.59
2018-11-25T15:44:18.052Z,97275.94
2018-11-25T15:46:48.561Z,97269.44
2018-11-25T15:49:19.050Z,97268.50
2018-11-25T15:51:49.524Z,97262.09
2018-11-25T15:54:20.031Z,97262.48
2018-11-25T15:56:50.544Z,97259.10
2018-11-25T15:59:21.299Z,97263.33
2018-11-25T16:01:51.896Z,97261.14
2018-11-25T16:04:22.567Z,97258.88
2018-11-25T16:06:53.313Z,97256.30
2018-11-25T16:09:23.891Z,97257.14
2018-11-25T16:11:54.644Z,97260.08
2018-11-25T16:14:25.235Z,97255.70
2018-11-25T16:16:55.924Z,97250.81
2018-11-25T16:19:26.399Z,97251.20
2018-11-25T16:21:57.130Z,97247.23
2018-11-25T16:24:27.933Z,97243.63
2018-11-25T16:26:58.553Z,97243.57
2018-11-25T16:29:29.266Z,97243.52
2018-11-25T16:31:59.967Z,97247.41
2018-11-25T16:34:30.659Z,97242.18
2018-11-25T16:37:01.128Z,97246.38
2018-11-25T16:39:31.583Z,97248.91
2018-11-25T16:42:02.389Z,97243.69
2018-11-25T16:44:32.779Z,97248.41
2018-11-25T16:47:03.122Z,97252.16
2018-11-25T16:49:33.545Z,97252.16
2018-11-25T16:52:03.843Z,97252.55
2018-11-25T16:54:34.276Z,97256.87
2018-11-25T16:57:09.951Z,97261.28
2018-11-25T16:59:40.564Z,97262.38
2018-11-25T17:02:11.046Z,97256.94
2018-11-25T17:04:42.231Z,97254.80
2018-11-25T17:07:12.706Z,97263.85
2018-11-25T17:09:57.561Z,97270.27
2018-11-25T17:12:28.587Z,97267.33
2018-11-25T17:14:59.133Z,97263.45
2018-11-25T17:17:29.668Z,97263.05
2018-11-25T17:20:16.381Z,97260.07
2018-11-25T17:23:06.955Z,97264.08
2018-11-25T17:25:37.332Z,97259.31
2018-11-25T17:28:08.417Z,97265.23
2018-11-25T17:30:39.121Z,97260.59
2018-11-25T17:33:09.647Z,97262.34
2018-11-25T17:35:40.378Z,97264.08
2018-11-25T17:38:11.160Z,97264.52
2018-11-25T17:40:41.990Z,97265.86
2018-11-25T17:43:14.420Z,97261.59
2018-11-25T17:45:45.013Z,97265.86
2018-11-25T17:48:15.613Z,97259.41
2018-11-25T17:50:46.085Z,97254.69
2018-11-25T17:53:20.612Z,97255.53
2018-11-25T17:55:47.411Z,97253.39
2018-11-25T17:58:18.304Z,97255.08
2018-11-25T18:01:06.875Z,97262.78
2018-11-25T18:03:38.498Z,97261.55
2018-11-25T18:06:09.092Z,97263.23
2018-11-25T18:08:39.940Z,97260.70
2018-11-25T18:11:10.593Z,97265.41
2018-11-25T18:13:42.174Z,97267.55
2018-11-25T18:16:13.062Z,97264.58
2018-11-25T18:18:47.298Z,97266.71
2018-11-25T18:21:25.846Z,97262.44
2018-11-25T18:23:56.507Z,97264.52
2018-11-25T18:26:27.180Z,97263.73
2018-11-25T18:28:58.005Z,97262.93
2018-11-25T18:31:28.874Z,97270.28
2018-11-25T18:33:59.549Z,97272.87
2018-11-25T18:36:30.448Z,97273.34
2018-11-25T18:39:01.244Z,97276.38
2018-11-25T18:41:32.168Z,97271.13
2018-11-25T18:44:02.754Z,97264.67
2018-11-25T18:46:37.394Z,97270.63
2018-11-25T18:49:10.300Z,97268.45
2018-11-25T18:51:41.020Z,97266.36
2018-11-25T18:54:11.666Z,97262.03
2018-11-25T18:56:42.148Z,97259.85
2018-11-25T18:59:12.930Z,97263.33
2018-11-25T19:01:49.058Z,97261.59
2018-11-25T19:04:19.781Z,97259.41
2018-11-25T19:06:50.332Z,97263.33
2018-11-25T19:09:20.861Z,97259.45
2018-11-25T19:11:51.329Z,97260.30
2018-11-25T19:14:21.842Z,97255.18
2018-11-25T19:16:52.608Z,97259.13
2018-11-25T19:19:23.290Z,97257.05
2018-11-25T19:21:53.924Z,97253.62
2018-11-25T19:24:24.706Z,97255.31
2018-11-25T19:26:58.551Z,97254.02
2018-11-25T19:29:29.286Z,97256.20
2018-11-25T19:31:59.952Z,97255.75
2018-11-25T19:34:30.442Z,97264.80
2018-11-25T19:37:01.100Z,97258.34
2018-11-25T19:39:31.603Z,97260.03
2018-11-25T19:42:02.516Z,97262.53
2018-11-25T19:44:33.054Z,97255.70
2018-11-25T19:47:03.667Z,97252.67
2018-11-25T19:49:34.990Z,97250.64
2018-11-25T19:52:05.735Z,97248.45
2018-11-25T19:54:36.229Z,97248.09
2018-11-25T19:57:11.460Z,97247.70
2018-11-25T19:59:42.745Z,97242.59
2018-11-25T20:02:13.282Z,97242.14
2018-11-25T20:04:44.265Z,97239.19
2018-11-25T20:07:15.920Z,97243.16
2018-11-25T20:09:46.563Z,97234.12
2018-11-25T20:12:17.680Z,97242.31
2018-11-25T20:14:48.318Z,97239.73
2018-11-25T20:17:24.008Z,97250.06
2018-11-25T20:19:54.936Z,97236.35
2018-11-25T20:22:26.417Z,97247.13
2018-11-25T20:24:57.082Z,97241.12
2018-11-25T20:27:33.096Z,97243.25
2018-11-25T20:30:05.410Z,97233.81
2018-11-25T20:32:39.752Z,97235.55
2018-11-25T20:35:10.223Z,97242.48
2018-11-25T20:37:45.873Z,97229.17
2018-11-25T20:40:16.413Z,97230.91
2018-11-25T20:42:47.081Z,97234.34
2018-11-25T20:45:23.916Z,97236.08
2018-11-25T20:47:55.258Z,97233.45
2018-11-25T20:50:26.649Z,97230.91
2018-11-25T20:53:01.871Z,97230.07
2018-11-25T20:55:32.640Z,97237.02
2018-11-25T20:58:03.272Z,97235.28
2018-11-25T21:00:35.459Z,97233.59
2018-11-25T21:03:07.705Z,97232.30
2018-11-25T21:05:37.745Z,97230.30
2018-11-25T21:08:08.311Z,97234.98
2018-11-25T21:10:38.693Z,97234.53
2018-11-25T21:13:09.078Z,97229.94
2018-11-25T21:15:39.189Z,97233.02
2018-11-25T21:18:09.238Z,97229.59
2018-11-25T21:20:39.287Z,97228.42
2018-11-25T21:23:10.521Z,97229.72
2018-11-25T21:25:40.579Z,97221.57
2018-11-25T21:28:10.669Z,97230.16
2018-11-25T21:30:40.723Z,97223.75
2018-11-25T21:33:14.188Z,97229.36
2018-11-25T21:35:44.175Z,97230.66
2018-11-25T21:38:14.363Z,97235.86
2018-11-25T21:40:44.345Z,97229.50
2018-11-25T21:43:14.337Z,97229.14
2018-11-25T21:45:44.600Z,97232.61
2018-11-25T21:48:14.620Z,97231.36
2018-11-25T21:50:44.682Z,97234.84
2018-11-25T21:53:14.779Z,97229.28
2018-11-25T21:55:44.786Z,97230.61
2018-11-25T21:58:15.095Z,97231.58
2018-11-25T22:00:46.194Z,97234.25
2018-11-25T22:03:16.194Z,97235.14
2018-11-25T22:05:46.214Z,97234.75
2018-11-25T22:08:16.277Z,97235.20
2018-11-25T22:10:46.258Z,97233.50
2018-11-25T22:13:16.263Z,97231.84
2018-11-25T22:15:46.416Z,97232.66
2018-11-25T22:18:16.400Z,97227.97
2018-11-25T22:20:46.370Z,97224.99
2018-11-25T22:23:16.380Z,97224.99
2018-11-25T22:25:46.378Z,97226.33
2018-11-25T22:28:16.385Z,97228.91
2018-11-25T22:30:46.389Z,97230.59
2018-11-25T22:33:16.388Z,97231.05
2018-11-25T22:35:46.431Z,97225.44
2018-11-25T22:38:16.415Z,97223.62
2018-11-25T22:40:46.442Z,97221.00
2018-11-25T22:43:16.564Z,97225.48
2018-11-25T22:45:46.604Z,97221.16
2018-11-25T22:48:16.652Z,97224.14
2018-11-25T22:50:46.696Z,97229.40
2018-11-25T22:53:16.754Z,97229.84
2018-11-25T22:55:46.716Z,97225.58
2018-11-25T22:58:17.055Z,97226.02
2018-11-25T23:00:48.212Z,97226.81
2018-11-25T23:03:18.308Z,97219.56
2018-11-25T23:05:59.307Z,97222.22
2018-11-25T23:08:29.336Z,97226.46
2018-11-25T23:10:59.336Z,97226.09
2018-11-25T23:13:29.724Z,97225.70
2018-11-25T23:15:59.714Z,97233.08
2018-11-25T23:18:30.097Z,97236.91
2018-11-25T23:21:06.718Z,97231.39
2018-11-25T23:23:37.280Z,97228.72
2018-11-25T23:26:07.290Z,97226.59
2018-11-25T23:28:37.271Z,97220.58
2018-11-25T23:31:07.276Z,97226.23
2018-11-25T23:33:37.306Z,97215.23
2018-11-25T23:36:07.334Z,97208.83
2018-11-25T23:38:37.316Z,97215.31
2018-11-25T23:41:07.288Z,97216.70
2018-11-25T23:43:37.337Z,97214.77
2018-11-25T23:46:07.365Z,97209.87
2018-11-25T23:48:37.492Z,97212.81
2018-11-25T23:51:07.522Z,97218.95
2018-11-25T23:53:37.750Z,97224.10
2018-11-25T23:56:07.728Z,97221.28
2018-11-25T23:58:37.765Z,97219.05
